Time;durP1;ratioP1;P1;durP2;ratioP2;P2;SDS_P1;SDS_P2;PMS_P1;PMS_P2;Temp;Humidity;BMP_temperature;BMP_pressure;BME280_temperature;BME280_humidity;BME280_pressure;Samples;Min_cycle;Max_cycle;Signal;HPM_P1;HPM_P2
2023/09/02 00:02:26;;;;;;;3.27;3.07;;;;;;;-143.84;47.14;45026.22;5131694;27;20434;-53
2023/09/02 00:04:53;;;;;;;3.43;3.10;;;;;;;-143.84;47.30;45012.88;5131565;27;20448;-53
2023/09/02 00:07:20;;;;;;;2.80;2.60;;;;;;;-143.84;47.34;45016.69;5131610;27;20422;-53
2023/09/02 00:09:48;;;;;;;3.10;2.80;;;;;;;-143.84;46.83;45041.44;5131310;27;20434;-53
2023/09/02 00:12:15;;;;;;;8.90;3.00;;;;;;;-143.84;47.46;45037.66;5111101;28;20471;-55
2023/09/02 00:14:43;;;;;;;14.97;2.97;;;;;;;-143.84;47.30;45012.88;5110938;28;20492;-55
2023/09/02 00:17:10;;;;;;;2.67;2.47;;;;;;;-143.84;47.54;45066.22;5111080;28;21349;-53
2023/09/02 00:19:38;;;;;;;6.10;3.20;;;;;;;-143.84;47.32;45022.41;5109556;28;20431;-53
2023/09/02 00:22:06;;;;;;;3.10;2.67;;;;;;;-143.84;47.35;45030.03;5110642;28;20439;-54
2023/09/02 00:24:33;;;;;;;3.63;2.67;;;;;;;-143.84;47.01;45064.31;5110912;27;20451;-55
2023/09/02 00:27:02;;;;;;;8.43;3.03;;;;;;;-143.84;46.82;45022.41;5110442;28;20478;-55
2023/09/02 00:29:29;;;;;;;3.00;2.80;;;;;;;-143.84;47.05;45043.34;5110626;28;20447;-55
2023/09/02 00:31:56;;;;;;;2.90;2.47;;;;;;;-143.84;47.03;45020.50;5110602;28;20933;-55
2023/09/02 00:34:23;;;;;;;6.20;2.43;;;;;;;-143.84;47.28;45020.50;5110420;28;20442;-55
2023/09/02 00:36:50;;;;;;;3.10;2.73;;;;;;;-143.84;47.23;45050.97;5110323;28;21003;-55
2023/09/02 00:39:18;;;;;;;3.90;3.60;;;;;;;-143.84;47.49;45045.25;5110357;28;20446;-55
2023/09/02 00:41:48;;;;;;;4.47;2.97;;;;;;;-143.84;47.41;45030.03;5110552;28;21000;-55
2023/09/02 00:44:17;;;;;;;3.70;3.40;;;;;;;-143.84;47.73;45045.25;5110404;28;20450;-55
2023/09/02 00:46:45;;;;;;;2.60;2.50;;;;;;;-143.84;48.17;45037.66;5110252;28;20438;-55
2023/09/02 00:49:13;;;;;;;3.47;3.07;;;;;;;-143.84;48.16;45028.13;5110573;28;21320;-55
2023/09/02 00:51:40;;;;;;;3.47;3.00;;;;;;;-143.84;48.56;45030.03;5110286;28;20438;-55
2023/09/02 00:54:07;;;;;;;4.13;3.37;;;;;;;-143.84;48.58;45022.41;5110274;28;20491;-55
2023/09/02 00:56:37;;;;;;;4.53;2.97;;;;;;;-143.84;48.74;45039.53;5109963;28;20439;-55
2023/09/02 00:59:06;;;;;;;3.53;3.33;;;;;;;-143.84;49.16;45035.75;5110112;28;20442;-55
2023/09/02 01:01:36;;;;;;;4.57;3.27;;;;;;;-143.84;49.62;45054.78;5109840;27;20449;-55
2023/09/02 01:04:04;;;;;;;6.20;4.57;;;;;;;-143.84;50.17;45041.44;5109897;28;20807;-55
2023/09/02 01:06:32;;;;;;;7.40;3.70;;;;;;;-143.84;50.61;45031.94;5110090;28;20453;-55
2023/09/02 01:09:00;;;;;;;5.53;4.03;;;;;;;-143.84;51.01;45039.53;5109975;28;20465;-55
2023/09/02 01:11:28;;;;;;;4.47;4.07;;;;;;;-143.84;51.75;45037.66;5109804;28;20431;-55
2023/09/02 01:13:55;;;;;;;4.00;3.70;;;;;;;-143.84;51.93;45030.03;5109709;28;20998;-55
2023/09/02 01:16:22;;;;;;;7.20;4.60;;;;;;;-143.84;52.07;45064.31;5109732;28;20439;-55
2023/09/02 01:18:51;;;;;;;4.30;3.87;;;;;;;-143.84;52.84;45052.88;5109647;28;21145;-55
2023/09/02 01:21:40;;;;;;;4.40;4.10;;;;;;;-143.84;53.29;45041.44;5110025;28;20823;-55
2023/09/02 01:24:32;;;;;;;8.90;4.70;;;;;;;-143.84;53.24;45037.66;5109827;28;20451;-55
2023/09/02 01:27:18;;;;;;;7.20;4.40;;;;;;;-143.84;54.07;45043.34;5107899;28;20467;-55
2023/09/02 01:29:54;;;;;;;5.00;4.23;;;;;;;-143.84;53.86;45039.53;5109350;28;20504;-55
2023/09/02 01:32:22;;;;;;;8.03;4.27;;;;;;;-143.84;54.32;45020.50;5109192;28;20439;-55
2023/09/02 01:34:51;;;;;;;7.30;4.23;;;;;;;-143.84;55.12;45047.16;5109546;28;20443;-55
2023/09/02 01:37:21;;;;;;;6.90;4.17;;;;;;;-143.84;57.07;45041.44;5109408;28;20561;-55
2023/09/02 01:39:51;;;;;;;16.60;4.10;;;;;;;-143.84;57.14;45022.41;5109492;28;20443;-55
2023/09/02 01:42:20;;;;;;;6.93;4.47;;;;;;;-143.84;57.50;45066.22;5109586;28;20450;-55
2023/09/02 01:44:48;;;;;;;15.00;4.90;;;;;;;-143.84;58.40;45024.31;5108730;28;20942;-55
2023/09/02 01:47:16;;;;;;;9.70;5.33;;;;;;;-143.84;59.17;45022.41;5108696;28;20435;-55
2023/09/02 01:49:46;;;;;;;11.30;4.93;;;;;;;-143.84;59.41;45033.84;5109106;28;20439;-55
2023/09/02 01:52:14;;;;;;;8.60;5.60;;;;;;;-143.84;61.53;45026.22;5108996;28;20431;-55
2023/09/02 01:54:42;;;;;;;9.20;4.50;;;;;;;-143.84;60.42;45041.44;5108938;28;20484;-55
2023/09/02 01:57:09;;;;;;;6.10;4.80;;;;;;;-143.84;60.38;45030.03;5109134;28;20431;-55
2023/09/02 01:59:38;;;;;;;11.57;4.60;;;;;;;-143.84;59.57;45037.66;5108905;28;20814;-55
2023/09/02 02:02:05;;;;;;;5.03;4.63;;;;;;;-143.84;59.81;45062.41;5108902;27;20443;-55
2023/09/02 02:04:35;;;;;;;9.70;4.87;;;;;;;-143.84;60.36;45043.34;5109041;28;20925;-55
2023/09/02 02:07:07;;;;;;;5.10;4.70;;;;;;;-143.84;61.06;45043.34;5109012;28;20929;-55
2023/09/02 02:09:40;;;;;;;5.23;4.73;;;;;;;-143.84;61.55;45050.97;5108986;28;20436;-55
2023/09/02 02:12:08;;;;;;;14.03;5.93;;;;;;;-143.84;61.56;45060.50;5109069;28;20431;-55
2023/09/02 02:14:37;;;;;;;7.37;4.87;;;;;;;-143.84;61.77;45031.94;5108990;28;20514;-55
2023/09/02 02:17:05;;;;;;;5.70;5.10;;;;;;;-143.84;62.11;45070.00;5109043;28;21039;-55
2023/09/02 02:19:32;;;;;;;6.83;4.30;;;;;;;-143.84;61.97;45066.22;5109049;28;20807;-55
2023/09/02 02:21:59;;;;;;;5.33;4.90;;;;;;;-143.84;61.96;45050.97;5108927;28;20945;-55
2023/09/02 02:24:27;;;;;;;5.50;5.00;;;;;;;-143.84;61.66;45033.84;5109053;28;20449;-55
2023/09/02 02:26:54;;;;;;;6.03;4.60;;;;;;;-143.84;61.72;45033.84;5108631;28;20475;-55
2023/09/02 02:29:21;;;;;;;6.47;5.13;;;;;;;-143.84;61.88;45037.66;5108712;28;20439;-55
2023/09/02 02:31:50;;;;;;;6.13;5.27;;;;;;;-143.84;61.89;45030.03;5108871;28;20590;-55
2023/09/02 02:34:17;;;;;;;5.60;4.77;;;;;;;-143.84;61.86;45054.78;5108814;28;20955;-55
2023/09/02 02:36:44;;;;;;;5.70;5.10;;;;;;;-143.84;61.96;45049.06;5108684;28;20430;-55
2023/09/02 02:39:11;;;;;;;4.97;4.40;;;;;;;-143.84;61.47;45066.22;5108669;28;20471;-55
2023/09/02 02:41:38;;;;;;;12.03;4.70;;;;;;;-143.84;61.38;45049.06;5108669;28;20492;-55
2023/09/02 02:44:06;;;;;;;5.50;5.00;;;;;;;-143.84;61.20;45047.16;5112130;28;20483;-55
2023/09/02 02:46:33;;;;;;;6.27;4.77;;;;;;;-143.84;60.55;45054.78;5112611;28;20431;-55
2023/09/02 02:49:01;;;;;;;9.23;4.77;;;;;;;-143.84;60.07;45041.44;5112834;28;20484;-53
2023/09/02 02:51:29;;;;;;;18.73;4.50;;;;;;;-143.84;59.47;45064.31;5112534;28;20952;-53
2023/09/02 02:53:56;;;;;;;6.03;4.17;;;;;;;-143.84;58.93;45062.41;5112574;28;20442;-53
2023/09/02 02:56:23;;;;;;;4.87;4.37;;;;;;;-143.84;58.45;45043.34;5112405;28;20435;-55
2023/09/02 02:58:50;;;;;;;6.70;4.23;;;;;;;-143.84;58.35;45064.31;5112608;28;20470;-55
2023/09/02 03:01:17;;;;;;;6.10;3.67;;;;;;;-143.84;58.16;45089.06;5112459;28;20940;-55
2023/09/02 03:03:44;;;;;;;6.93;3.47;;;;;;;-143.84;58.11;45039.53;5112549;28;20492;-55
2023/09/02 03:06:18;;;;;;;6.90;3.37;;;;;;;-143.84;58.22;45054.78;5112359;28;20495;-55
2023/09/02 03:08:45;;;;;;;4.20;3.53;;;;;;;-143.84;57.79;45081.44;5112509;28;20447;-55
2023/09/02 03:11:12;;;;;;;3.30;3.07;;;;;;;-143.84;57.86;45052.88;5112403;28;20494;-55
2023/09/02 03:13:39;;;;;;;5.30;3.80;;;;;;;-143.84;57.84;45026.22;5112350;28;20511;-55
2023/09/02 03:16:06;;;;;;;4.53;3.37;;;;;;;-143.84;57.84;45033.84;5112275;27;20439;-55
2023/09/02 03:18:33;;;;;;;4.10;3.70;;;;;;;-143.84;57.70;45064.31;5112090;28;20475;-55
2023/09/02 03:21:04;;;;;;;4.60;3.50;;;;;;;-143.84;58.13;45045.25;5112165;28;20484;-55
2023/09/02 03:23:34;;;;;;;4.13;3.37;;;;;;;-143.84;58.45;45043.34;5112315;28;20447;-55
2023/09/02 03:26:08;;;;;;;4.10;3.80;;;;;;;-143.84;58.56;45064.31;5111868;28;20471;-55
2023/09/02 03:28:35;;;;;;;6.33;3.40;;;;;;;-143.84;58.79;45039.53;5111929;28;21089;-55
2023/09/02 03:31:09;;;;;;;5.27;3.73;;;;;;;-143.84;58.69;45052.88;5111726;28;20786;-55
2023/09/02 03:33:37;;;;;;;10.23;4.13;;;;;;;-143.84;58.84;45047.16;5111932;28;21244;-55
2023/09/02 03:36:04;;;;;;;5.03;3.70;;;;;;;-143.84;59.20;45047.16;5111706;28;20439;-55
2023/09/02 03:38:33;;;;;;;19.50;5.20;;;;;;;-143.84;59.55;45045.25;5111911;28;20470;-55
2023/09/02 03:41:00;;;;;;;3.93;3.53;;;;;;;-143.84;59.91;45073.81;5111495;27;21031;-55
2023/09/02 03:43:27;;;;;;;7.30;4.10;;;;;;;-143.84;59.87;45054.78;5111657;27;20515;-55
2023/09/02 03:45:58;;;;;;;4.63;3.87;;;;;;;-143.84;60.18;45031.94;5111568;28;20497;-53
2023/09/02 03:48:25;;;;;;;3.73;3.43;;;;;;;-143.84;60.35;45037.66;5111908;28;20452;-55
2023/09/02 03:51:05;;;;;;;4.60;3.23;;;;;;;-143.84;61.06;45083.34;5111756;28;20482;-55
2023/09/02 03:53:33;;;;;;;5.80;3.40;;;;;;;-143.84;61.39;45054.78;5111375;28;20444;-55
2023/09/02 03:56:01;;;;;;;5.10;3.90;;;;;;;-143.84;61.77;45058.59;5111318;27;20925;-55
2023/09/02 03:58:29;;;;;;;6.43;3.60;;;;;;;-143.84;62.28;45064.31;5111264;28;20506;-55
2023/09/02 04:00:57;;;;;;;4.67;4.10;;;;;;;-143.84;62.74;45035.75;5111630;28;21184;-55
2023/09/02 04:03:25;;;;;;;4.73;3.80;;;;;;;-143.84;63.14;45056.69;5111323;28;20441;-54
2023/09/02 04:05:53;;;;;;;4.13;3.53;;;;;;;-143.84;63.71;45041.44;5111393;28;20526;-55
2023/09/02 04:08:21;;;;;;;7.00;3.63;;;;;;;-143.84;64.34;45062.41;5111386;28;20427;-55
2023/09/02 04:10:53;;;;;;;9.80;4.27;;;;;;;-143.84;64.84;45062.41;5111401;28;20450;-54
2023/09/02 04:13:23;;;;;;;4.93;4.30;;;;;;;-143.84;64.85;45056.69;5111408;28;20462;-53
2023/09/02 04:15:51;;;;;;;6.83;4.40;;;;;;;-143.84;65.58;45050.97;5110911;28;20447;-54
2023/09/02 04:18:18;;;;;;;4.20;3.90;;;;;;;-143.84;65.81;45045.25;5110884;28;21230;-55
2023/09/02 04:20:45;;;;;;;5.13;3.80;;;;;;;-143.84;66.03;45056.69;5111044;28;20443;-53
2023/09/02 04:23:12;;;;;;;4.60;4.20;;;;;;;-143.84;66.98;45064.31;5110807;28;20450;-53
2023/09/02 04:25:49;;;;;;;5.10;4.50;;;;;;;-143.84;67.77;45064.31;5110312;28;20553;-53
2023/09/02 04:28:18;;;;;;;4.33;3.90;;;;;;;-143.84;67.89;45050.97;5111070;28;20457;-53
2023/09/02 04:30:46;;;;;;;5.57;5.07;;;;;;;-143.84;68.19;45047.16;5110816;28;20516;-55
2023/09/02 04:33:14;;;;;;;4.87;4.40;;;;;;;-143.84;68.42;45009.09;5110736;28;20435;-53
2023/09/02 04:35:45;;;;;;;6.30;4.47;;;;;;;-143.84;68.36;45039.53;5110366;28;20447;-53
2023/09/02 04:38:12;;;;;;;9.03;4.40;;;;;;;-143.84;68.34;45041.44;5110510;28;21061;-53
2023/09/02 04:40:40;;;;;;;6.70;4.50;;;;;;;-143.84;68.74;45041.44;5110289;28;20439;-53
2023/09/02 04:43:07;;;;;;;6.33;3.63;;;;;;;-143.84;68.30;45026.22;5118749;27;20438;-53
2023/09/02 04:45:39;;;;;;;4.27;3.87;;;;;;;-143.84;67.94;45049.06;5131115;27;20461;-53
2023/09/02 04:48:07;;;;;;;4.10;3.80;;;;;;;-143.84;67.67;45016.69;5130718;27;21317;-53
2023/09/02 04:50:36;;;;;;;4.40;4.10;;;;;;;-143.84;66.25;45030.03;5130658;27;20441;-54
2023/09/02 04:53:04;;;;;;;4.37;3.97;;;;;;;-143.84;64.69;45043.34;5130961;27;20442;-50
2023/09/02 04:55:31;;;;;;;5.77;4.10;;;;;;;-143.84;63.04;45035.75;5130472;27;20426;-52
2023/09/02 04:57:59;;;;;;;7.80;3.80;;;;;;;-143.84;61.00;45007.19;5130418;27;20446;-53
2023/09/02 05:00:27;;;;;;;3.50;3.20;;;;;;;-143.84;59.75;45028.13;5130770;27;20438;-53
2023/09/02 05:02:56;;;;;;;4.40;4.00;;;;;;;-143.84;58.22;45010.97;5130644;27;20434;-53
2023/09/02 05:05:24;;;;;;;7.97;3.23;;;;;;;-143.84;56.72;44997.66;5129965;27;20446;-52
2023/09/02 05:07:51;;;;;;;3.93;3.37;;;;;;;-143.84;55.30;45007.19;5130360;27;20556;-53
2023/09/02 05:10:19;;;;;;;5.43;3.40;;;;;;;-143.84;54.94;44978.63;5130743;27;21232;-53
2023/09/02 05:12:46;;;;;;;3.43;3.13;;;;;;;-143.84;53.75;45005.28;5130671;27;20549;-53
2023/09/02 05:15:13;;;;;;;3.53;3.33;;;;;;;-143.84;53.31;44986.22;5130715;27;21295;-53
2023/09/02 05:17:40;;;;;;;9.40;3.50;;;;;;;-143.84;52.79;45005.28;5130816;27;20430;-53
2023/09/02 05:20:09;;;;;;;4.80;3.30;;;;;;;-143.84;51.99;44969.09;5130474;27;20466;-53
2023/09/02 05:22:37;;;;;;;5.63;3.80;;;;;;;-143.84;50.67;44999.56;5119551;27;20471;-53
2023/09/02 05:25:05;;;;;;;5.10;3.33;;;;;;;-143.84;49.56;45003.38;5109428;28;21181;-53
2023/09/02 05:27:32;;;;;;;3.80;3.50;;;;;;;-143.84;49.01;44967.19;5109741;28;20434;-53
2023/09/02 05:29:59;;;;;;;3.30;3.00;;;;;;;-143.84;48.39;44950.06;5109558;28;20473;-53
2023/09/02 05:32:26;;;;;;;8.90;3.50;;;;;;;-143.84;47.44;44967.19;5109807;28;20507;-53
2023/09/02 05:34:53;;;;;;;3.37;3.17;;;;;;;-143.84;47.09;44984.31;5109470;28;20439;-53
2023/09/02 05:37:22;;;;;;;4.37;3.10;;;;;;;-143.84;45.57;44969.09;5108996;28;20483;-52
2023/09/02 05:39:49;;;;;;;3.10;2.90;;;;;;;-143.84;45.01;44946.25;5109227;28;20470;-53
2023/09/02 05:42:16;;;;;;;3.40;3.20;;;;;;;-143.84;44.59;44955.75;5109259;27;20435;-52
2023/09/02 05:44:43;;;;;;;4.97;3.40;;;;;;;-143.84;44.16;44946.25;5109088;28;20519;-53
2023/09/02 05:47:11;;;;;;;3.30;3.10;;;;;;;-143.84;42.88;44959.56;5109178;28;20435;-53
2023/09/02 05:49:38;;;;;;;4.03;2.97;;;;;;;-143.84;42.43;44961.47;5109226;28;20427;-53
2023/09/02 05:52:06;;;;;;;5.17;3.13;;;;;;;-143.84;41.40;44942.44;5108439;28;20442;-53
2023/09/02 05:54:35;;;;;;;2.23;2.13;;;;;;;-143.84;41.28;44942.44;5108956;28;20439;-53
2023/09/02 05:57:02;;;;;;;3.50;3.20;;;;;;;-143.84;40.65;44965.28;5109107;28;20442;-53
2023/09/02 05:59:29;;;;;;;3.00;2.80;;;;;;;-143.84;40.59;44934.81;5109229;28;20525;-53
2023/09/02 06:01:57;;;;;;;2.43;2.33;;;;;;;-143.84;40.02;44921.50;5122432;27;20970;-53
2023/09/02 06:04:24;;;;;;;2.93;2.73;;;;;;;-143.84;40.29;44942.44;5129461;27;20438;-53
2023/09/02 06:06:51;;;;;;;4.03;3.23;;;;;;;-143.84;39.67;44953.88;5127327;27;20457;-53
2023/09/02 06:09:18;;;;;;;3.30;2.50;;;;;;;-143.84;38.67;44917.69;5126187;27;20876;-53
2023/09/02 06:11:47;;;;;;;7.20;2.90;;;;;;;-143.84;39.52;44929.09;5129356;27;20438;-53
2023/09/02 06:14:14;;;;;;;9.83;3.20;;;;;;;-143.84;38.86;44910.06;5129503;27;20487;-52
2023/09/02 06:16:41;;;;;;;3.30;3.00;;;;;;;-143.84;38.51;44911.97;5130536;27;20445;-53
2023/09/02 06:19:08;;;;;;;3.50;2.77;;;;;;;-143.84;38.24;44913.88;5134915;27;20490;-54
2023/09/02 06:21:35;;;;;;;6.80;2.57;;;;;;;-143.84;37.38;44904.34;5135047;27;20441;-54
2023/09/02 06:24:05;;;;;;;2.97;2.77;;;;;;;-143.84;38.03;44898.66;5133523;27;20453;-54
2023/09/02 06:26:32;;;;;;;3.00;2.73;;;;;;;-143.84;37.16;44896.75;5132772;27;20477;-54
2023/09/02 06:29:01;;;;;;;3.33;2.60;;;;;;;-143.84;37.21;44919.59;5132796;27;20457;-54
2023/09/02 06:31:28;;;;;;;4.50;2.57;;;;;;;-143.84;36.96;44898.66;5132910;27;20430;-54
2023/09/02 06:33:55;;;;;;;3.50;3.23;;;;;;;-143.84;37.09;44866.28;5132682;27;20434;-54
2023/09/02 06:36:22;;;;;;;5.00;3.80;;;;;;;-143.84;36.36;44894.84;5132792;27;20442;-54
2023/09/02 06:38:50;;;;;;;6.33;2.97;;;;;;;-143.84;35.55;44894.84;5132736;27;20465;-54
2023/09/02 06:41:18;;;;;;;3.50;3.17;;;;;;;-143.84;36.12;44889.13;5133187;27;20499;-54
2023/09/02 06:43:45;;;;;;;2.43;2.33;;;;;;;-143.84;36.14;44902.44;5133247;27;20438;-54
2023/09/02 06:46:16;;;;;;;3.47;3.27;;;;;;;-143.84;35.64;44875.78;5133236;27;21302;-54
2023/09/02 06:48:44;;;;;;;3.30;2.73;;;;;;;-143.84;35.03;44889.13;5133051;27;20959;-54
2023/09/02 06:51:11;;;;;;;4.07;2.60;;;;;;;-143.84;35.52;44883.41;5132820;27;20448;-54
2023/09/02 06:53:39;;;;;;;3.00;2.80;;;;;;;-143.84;34.71;44873.88;5133250;27;20513;-54
2023/09/02 06:56:11;;;;;;;3.30;2.63;;;;;;;-143.84;34.89;44862.47;5133191;27;20440;-54
2023/09/02 06:58:40;;;;;;;2.97;2.77;;;;;;;-143.84;34.94;44877.69;5132814;27;21033;-54
2023/09/02 07:01:07;;;;;;;4.73;2.83;;;;;;;-143.84;34.45;44883.41;5133081;27;20497;-54
2023/09/02 07:03:36;;;;;;;4.50;2.93;;;;;;;-143.84;34.06;44832.00;5112259;28;20431;-54
2023/09/02 07:06:08;;;;;;;3.20;3.00;;;;;;;-143.84;34.27;44887.22;5110313;27;20471;-54
2023/09/02 07:08:35;;;;;;;3.07;2.87;;;;;;;-143.84;34.58;44877.69;5112294;28;20449;-54
2023/09/02 07:11:03;;;;;;;3.10;2.90;;;;;;;-143.84;35.11;44892.94;5111887;27;20435;-54
2023/09/02 07:13:30;;;;;;;7.53;3.20;;;;;;;-143.84;34.18;44873.88;5119956;27;21206;-54
2023/09/02 07:16:01;;;;;;;3.47;3.27;;;;;;;-143.84;34.52;44877.69;5117713;27;20439;-54
2023/09/02 07:18:28;;;;;;;3.00;2.70;;;;;;;-143.84;34.47;44830.09;5131670;27;20491;-54
2023/09/02 07:21:00;;;;;;;24.30;2.97;;;;;;;-143.84;33.54;44864.38;5131917;27;20481;-54
2023/09/02 07:23:27;;;;;;;3.50;3.17;;;;;;;-143.84;33.23;44858.66;5129600;27;20454;-54
2023/09/02 07:25:54;;;;;;;5.23;2.80;;;;;;;-143.84;33.11;44849.13;5131151;27;20486;-54
2023/09/02 07:28:22;;;;;;;2.93;2.73;;;;;;;-143.84;32.29;44854.84;5131657;27;20430;-54
2023/09/02 07:30:49;;;;;;;3.47;2.63;;;;;;;-143.84;33.01;44849.13;5132263;27;20805;-54
2023/09/02 07:33:16;;;;;;;2.97;2.77;;;;;;;-143.84;32.60;44847.22;5132006;27;20438;-54
2023/09/02 07:35:43;;;;;;;2.53;2.40;;;;;;;-143.84;33.51;44843.44;5132459;27;20429;-54
2023/09/02 07:38:12;;;;;;;3.90;2.90;;;;;;;-143.84;31.45;44856.75;5125813;27;20498;-54
2023/09/02 07:40:39;;;;;;;2.90;2.70;;;;;;;-143.84;32.15;44851.03;5116079;27;20474;-54
2023/09/02 07:43:07;;;;;;;5.43;3.13;;;;;;;-143.84;32.38;44854.84;5111536;28;20435;-54
2023/09/02 07:45:34;;;;;;;3.30;3.00;;;;;;;-143.84;32.18;44856.75;5111311;28;21001;-54
2023/09/02 07:48:02;;;;;;;3.90;2.60;;;;;;;-143.84;30.95;44858.66;5111357;27;20492;-54
2023/09/02 07:50:29;;;;;;;3.13;2.80;;;;;;;-143.84;30.88;44854.84;5111327;27;20441;-54
2023/09/02 07:52:56;;;;;;;5.93;2.50;;;;;;;-143.84;31.50;44839.63;5128559;27;20449;-54
2023/09/02 07:55:26;;;;;;;2.90;2.70;;;;;;;-143.84;31.18;44837.72;5131880;27;20940;-54
2023/09/02 07:57:53;;;;;;;3.57;2.40;;;;;;;-143.84;30.78;44837.72;5131822;27;20514;-54
2023/09/02 08:00:20;;;;;;;2.50;2.30;;;;;;;-143.84;30.72;44851.03;5131859;27;20549;-54
2023/09/02 08:02:47;;;;;;;2.90;2.60;;;;;;;-143.84;30.57;44812.97;5131459;27;20434;-54
2023/09/02 08:05:15;;;;;;;3.47;2.30;;;;;;;-143.84;30.47;44868.19;5131753;27;20817;-54
2023/09/02 08:07:43;;;;;;;3.73;2.20;;;;;;;-143.84;30.81;44851.03;5131269;27;20458;-54
2023/09/02 08:10:11;;;;;;;3.83;3.20;;;;;;;-143.84;30.79;44843.44;5131428;27;20430;-54
2023/09/02 08:12:40;;;;;;;2.73;2.53;;;;;;;-143.84;31.32;44824.38;5131393;27;20438;-54
2023/09/02 08:15:08;;;;;;;6.10;3.03;;;;;;;-143.84;29.61;44811.06;5131512;27;20486;-54
2023/09/02 08:17:37;;;;;;;8.77;2.70;;;;;;;-143.84;30.23;44801.53;5131146;27;20515;-54
2023/09/02 08:20:05;;;;;;;4.90;2.50;;;;;;;-143.84;30.22;44801.53;5131570;27;20614;-54
2023/09/02 08:22:32;;;;;;;2.47;2.30;;;;;;;-143.84;30.85;44811.06;5131367;27;20534;-54
2023/09/02 08:24:59;;;;;;;3.60;2.80;;;;;;;-143.84;30.82;44835.81;5130758;27;20790;-54
2023/09/02 08:27:26;;;;;;;2.93;2.73;;;;;;;-143.84;31.32;44793.91;5130814;27;20426;-54
2023/09/02 08:29:55;;;;;;;2.90;2.70;;;;;;;-143.84;30.66;44807.25;5130901;27;20454;-54
2023/09/02 08:32:22;;;;;;;3.00;2.70;;;;;;;-143.84;30.85;44820.56;5130890;27;20503;-54
2023/09/02 08:34:49;;;;;;;3.13;2.60;;;;;;;-143.84;30.68;44799.63;5131064;27;20483;-54
2023/09/02 08:37:16;;;;;;;6.80;3.07;;;;;;;-143.84;30.59;44807.25;5131206;27;21084;-54
2023/09/02 08:39:43;;;;;;;5.93;3.60;;;;;;;-143.84;31.04;44795.81;5128451;27;20486;-54
2023/09/02 08:42:12;;;;;;;8.17;4.63;;;;;;;-143.84;30.44;44801.53;5130156;27;20490;-54
2023/09/02 08:44:41;;;;;;;6.23;3.70;;;;;;;-143.84;30.01;44797.72;5130381;27;20502;-54
2023/09/02 08:47:09;;;;;;;10.40;3.80;;;;;;;-143.84;29.81;44805.34;5126235;27;20452;-57
2023/09/02 08:49:37;;;;;;;3.97;2.57;;;;;;;-143.84;30.34;44809.16;5129983;27;20438;-58
2023/09/02 08:52:05;;;;;;;4.47;2.70;;;;;;;-143.84;30.03;44790.13;5130432;27;20438;-57
2023/09/02 08:54:33;;;;;;;2.90;2.70;;;;;;;-143.84;30.93;44778.69;5131037;27;20513;-57
2023/09/02 08:57:02;;;;;;;4.47;3.73;;;;;;;-143.84;30.29;44833.91;5130365;27;20549;-57
2023/09/02 08:59:29;;;;;;;17.30;4.37;;;;;;;-143.84;30.04;44805.34;5130566;27;20538;-58
2023/09/02 09:01:58;;;;;;;6.53;3.20;;;;;;;-143.84;30.55;44832.00;5130070;27;20872;-57
2023/09/02 09:04:33;;;;;;;3.30;2.90;;;;;;;-143.84;29.73;44851.03;5129394;27;20471;-57
2023/09/02 09:07:03;;;;;;;3.23;2.50;;;;;;;-143.84;29.64;44843.44;5129950;27;20780;-57
2023/09/02 09:09:32;;;;;;;4.83;2.93;;;;;;;-143.84;30.51;44824.38;5130376;27;20503;-58
2023/09/02 09:12:01;;;;;;;2.63;2.43;;;;;;;-143.84;31.51;44809.16;5130247;27;20464;-57
2023/09/02 09:14:32;;;;;;;4.27;3.23;;;;;;;-143.84;30.33;44805.34;5125942;27;20473;-57
2023/09/02 09:17:00;;;;;;;3.30;2.90;;;;;;;-143.84;30.92;44811.06;5128517;27;20445;-57
2023/09/02 09:19:29;;;;;;;3.70;3.40;;;;;;;-143.84;31.06;44818.66;5122822;27;20522;-57
2023/09/02 09:21:57;;;;;;;3.53;3.10;;;;;;;-143.84;31.35;44828.19;5121680;27;20458;-57
2023/09/02 09:24:26;;;;;;;4.90;3.57;;;;;;;-143.84;31.12;44830.09;5115691;27;20466;-57
2023/09/02 09:26:53;;;;;;;3.70;2.70;;;;;;;-143.84;31.29;44837.72;5129989;27;20486;-57
2023/09/02 09:29:21;;;;;;;8.50;2.97;;;;;;;-143.84;31.18;44828.19;5130039;27;20434;-57
2023/09/02 09:31:49;;;;;;;3.87;2.90;;;;;;;-143.84;31.25;44851.03;5127104;27;20454;-57
2023/09/02 09:34:16;;;;;;;3.83;3.00;;;;;;;-143.84;31.53;44820.56;5127055;27;20785;-57
2023/09/02 09:36:58;;;;;;;3.53;3.27;;;;;;;-143.84;31.80;44849.13;5128498;27;20450;-57
2023/09/02 09:39:38;;;;;;;3.63;3.03;;;;;;;-143.84;32.60;44854.84;5128221;27;20487;-57
2023/09/02 09:42:06;;;;;;;7.80;3.27;;;;;;;-143.84;32.99;44835.81;5125045;27;20446;-57
2023/09/02 09:44:33;;;;;;;4.20;3.10;;;;;;;-143.84;33.40;44839.63;5129670;27;20445;-57
2023/09/02 09:47:01;;;;;;;3.27;3.07;;;;;;;-143.84;33.73;44824.38;5129621;27;20442;-57
2023/09/02 09:49:29;;;;;;;3.03;2.67;;;;;;;-143.84;34.01;44833.91;5129006;27;20434;-57
2023/09/02 09:52:10;;;;;;;3.37;3.17;;;;;;;-143.84;34.56;44862.47;5128962;27;20494;-57
2023/09/02 09:54:39;;;;;;;6.43;4.30;;;;;;;-143.84;35.33;44830.09;5129566;27;20532;-58
2023/09/02 09:57:08;;;;;;;3.37;3.03;;;;;;;-143.84;35.22;44864.38;5129539;27;20442;-57
2023/09/02 09:59:36;;;;;;;4.00;3.60;;;;;;;-143.84;35.76;44858.66;5129544;27;20426;-57
2023/09/02 10:02:04;;;;;;;4.80;4.07;;;;;;;-143.84;36.40;44862.47;5129819;27;20850;-57
2023/09/02 10:04:32;;;;;;;4.90;3.07;;;;;;;-143.84;36.52;44839.63;5129346;27;20970;-57
2023/09/02 10:07:00;;;;;;;6.10;3.70;;;;;;;-143.84;37.07;44856.75;5129328;27;20974;-57
2023/09/02 10:09:42;;;;;;;4.23;3.40;;;;;;;-143.84;37.47;44843.44;5129470;27;20434;-57
2023/09/02 10:12:15;;;;;;;6.30;3.37;;;;;;;-143.84;36.74;44860.56;5129207;27;20442;-57
2023/09/02 10:14:43;;;;;;;8.07;3.70;;;;;;;-143.84;37.53;44877.69;5129113;27;20525;-57
2023/09/02 10:17:11;;;;;;;4.57;4.10;;;;;;;-143.84;37.47;44837.72;5129334;27;20442;-57
2023/09/02 10:19:38;;;;;;;5.53;3.43;;;;;;;-143.84;38.41;44877.69;5129302;27;20470;-57
2023/09/02 10:22:06;;;;;;;6.73;4.13;;;;;;;-143.84;38.91;44883.41;5129164;27;20442;-57
2023/09/02 10:24:41;;;;;;;6.27;4.33;;;;;;;-143.84;41.29;44883.41;5129385;27;20457;-57
2023/09/02 10:27:17;;;;;;;4.13;3.70;;;;;;;-143.84;40.93;44866.28;5129390;27;20426;-57
2023/09/02 10:29:47;;;;;;;12.83;5.73;;;;;;;-143.84;43.28;44868.19;5128114;27;20437;-57
2023/09/02 10:32:15;;;;;;;10.70;4.47;;;;;;;-143.84;44.01;44875.78;5118323;28;20452;-57
2023/09/02 10:34:53;;;;;;;6.20;4.77;;;;;;;-143.84;46.89;44891.03;5112183;27;20446;-57
2023/09/02 10:37:26;;;;;;;6.97;5.37;;;;;;;-143.84;47.32;44885.31;5114866;28;21114;-57
2023/09/02 10:40:02;;;;;;;9.00;4.93;;;;;;;-143.84;49.34;44877.69;5111048;28;20430;-57
2023/09/02 10:42:30;;;;;;;5.03;3.93;;;;;;;-143.84;46.20;44873.88;5114372;28;20455;-57
2023/09/02 10:44:58;;;;;;;8.83;5.00;;;;;;;-143.84;48.77;44870.09;5115569;27;20499;-57
2023/09/02 10:47:25;;;;;;;9.10;4.60;;;;;;;-143.84;48.59;44868.19;5111651;27;20480;-57
2023/09/02 10:49:55;;;;;;;7.50;4.43;;;;;;;-143.84;48.23;44885.31;5113850;27;20470;-57
2023/09/02 10:52:21;;;;;;;5.80;4.57;;;;;;;-143.84;48.13;44894.84;5113933;28;20931;-57
2023/09/02 10:55:03;;;;;;;10.20;4.70;;;;;;;-143.84;45.21;44881.50;5126604;28;20442;-57
2023/09/02 10:57:31;;;;;;;6.97;4.20;;;;;;;-143.84;47.15;44885.31;5128359;27;20443;-57
2023/09/02 11:00:13;;;;;;;6.30;4.70;;;;;;;-143.84;46.84;44866.28;5128772;27;20423;-57
2023/09/02 11:02:41;;;;;;;9.10;4.73;;;;;;;-143.84;47.23;44873.88;5128652;27;21015;-57
2023/09/02 11:05:09;;;;;;;8.30;4.90;;;;;;;-143.84;47.58;44885.31;5132121;27;20449;-57
2023/09/02 11:07:36;;;;;;;6.90;4.00;;;;;;;-143.84;48.48;44904.34;5126609;27;20455;-57
2023/09/02 11:10:05;;;;;;;6.60;4.40;;;;;;;-143.84;48.14;44904.34;5122383;27;20500;-57
2023/09/02 11:12:33;;;;;;;10.40;4.57;;;;;;;-143.84;48.98;44921.50;5132120;27;20502;-57
2023/09/02 11:15:18;;;;;;;6.00;4.17;;;;;;;-143.84;49.23;44904.34;5123762;27;21041;-57
2023/09/02 11:17:45;;;;;;;6.60;4.17;;;;;;;-143.84;50.65;44900.53;5129663;27;20450;-57
2023/09/02 11:20:13;;;;;;;12.70;5.30;;;;;;;-143.84;50.48;44894.84;5132207;27;20469;-57
2023/09/02 11:22:52;;;;;;;7.47;4.40;;;;;;;-143.84;49.17;44892.94;5132361;27;20446;-57
2023/09/02 11:25:41;;;;;;;7.03;4.13;;;;;;;-143.84;50.33;44896.75;5131895;27;20481;-57